Data for 11/19/2006

Time Sea-Level Adjusted Pressure Absolute Pressure Temperature Relative Humidity Dew Point   
(mb) (inHg) (mb) (inHg) (C) (F) (%) (C) (F)
00:05 1027 30.33 856 25.28 1.2 34.2 51 -7.9 17.8
00:10 1027 30.33 856 25.28 1.1 33.9 52 -7.8 17.9
00:15 1027 30.33 856 25.28 0.8 33.5 53 -7.8 18
00:20 1027 30.33 856 25.28 0.8 33.4 52 -7.9 17.9
00:25 1027 30.33 856 25.28 1 33.7 52 -7.9 17.8
00:30 1027 30.33 856 25.28 0.6 33 53 -7.9 17.7
00:35 1027 30.33 856 25.28 0.2 32.3 53 -8.4 16.9
00:40 1027 30.33 856 25.28 0.4 32.7 50 -8.8 16.2
00:45 1027 30.33 856 25.28 0.8 33.4 51 -8.3 17
00:50 1027 30.33 856 25.28 1.1 34 50 -8.2 17.3
00:55 1027 30.33 856 25.28 1.4 34.5 50 -7.9 17.7
01:00 1027 30.33 856 25.28 1.3 34.4 51 -7.8 18
01:05 1027 30.33 856 25.28 1.2 34.1 52 -7.7 18.1
01:10 1027 30.33 856 25.28 1.1 34 52 -7.8 18
01:15 1027 30.33 856 25.28 0.7 33.3 52 -8 17.6
01:20 1027 30.33 856 25.28 -0.1 31.9 51 -9 15.8
01:25 1027 30.33 856 25.28 0.1 32.1 50 -9.1 15.7
01:30 1027 30.33 856 25.28 0.3 32.5 51 -8.8 16.1
01:35 1027 30.33 856 25.28 0.3 32.6 51 -8.8 16.2
01:40 1027 30.33 856 25.28 0.4 32.7 50 -8.9 15.9
01:45 1027 30.33 856 25.28 0.5 32.9 50 -8.8 16.2
01:50 1027 30.33 856 25.28 1 33.7 50 -8.3 17
01:55 1027 30.33 856 25.28 0.8 33.5 51 -8.1 17.3
02:00 1027 30.33 856 25.28 0.1 32.2 54 -8.2 17.3
02:05 1027 30.33 856 25.28 -0.5 31 48 -10.2 13.6
02:10 1027 30.33 857 25.31 -0.5 31.2 45 -11 12.1
02:15 1027 30.33 856 25.28 -0.1 31.8 41 -11.8 10.8
02:20 1027 30.33 856 25.28 -0.2 31.7 39 -12.5 9.5
02:25 1027 30.33 857 25.31 0.3 32.5 37 -12.7 9.1
02:30 1027 30.33 857 25.31 0.5 33 49 -8.9 15.9
02:35 1027 30.33 856 25.28 0.4 32.8 51 -8.6 16.5
02:40 1027 30.33 856 25.28 -0.1 31.9 52 -8.8 16.2
02:45 1027 30.33 856 25.28 -0.7 30.7 52 -9.5 15
02:50 1027 30.33 856 25.28 -1.1 30.1 54 -9.3 15.2
02:55 1027 30.33 856 25.28 -0.7 30.7 54 -8.9 16
03:00 1027 30.33 856 25.28 -0.7 30.8 55 -8.7 16.3
03:05 1027 30.33 856 25.28 -0.6 30.8 57 -8.2 17.3
03:10 1027 30.33 856 25.28 -0.5 31.2 57 -8 17.7
03:15 1027 30.33 856 25.28 -0.5 31.1 57 -8 17.6
03:20 1027 30.33 856 25.28 -0.7 30.8 59 -7.8 17.9
03:25 1027 30.33 856 25.28 -0.6 31 57 -8.2 17.3
03:30 1027 30.33 856 25.28 -0.5 31.2 55 -8.5 16.6
03:35 1027 30.33 856 25.28 -0.7 30.8 54 -8.8 16.2
03:40 1027 30.33 856 25.28 -0.5 31 44 -11.3 11.7
03:45 1027 30.33 856 25.28 0.4 32.7 44 -10.5 13.2
03:50 1027 30.33 856 25.28 0.5 32.9 43 -10.6 13
03:55 1026 30.3 856 25.28 0.5 32.9 46 -10 14
04:00 1027 30.33 856 25.28 0.5 32.8 52 -8.3 17.1
04:05 1027 30.33 856 25.28 0.4 32.8 51 -8.7 16.4
04:10 1027 30.33 856 25.28 0.4 32.7 52 -8.4 16.9
04:15 1027 30.33 856 25.28 0.1 32.2 55 -7.9 17.7
04:20 1027 30.33 856 25.28 -0.4 31.3 56 -8.2 17.3
04:25 1026 30.3 856 25.28 -0.8 30.5 55 -8.8 16.1
04:30 1026 30.3 856 25.28 -1.1 30.1 52 -9.7 14.5
04:35 1026 30.3 856 25.28 -1 30.2 54 -9.3 15.3
04:40 1026 30.3 856 25.28 -0.9 30.4 55 -8.8 16.1
04:45 1026 30.3 856 25.28 -0.4 31.3 47 -10.3 13.5
04:50 1026 30.3 856 25.28 -0.1 31.9 53 -8.5 16.6
04:55 1026 30.3 856 25.28 -0.5 31.1 54 -8.8 16.2
05:00 1026 30.3 856 25.28 -1.1 30 52 -9.7 14.5
05:05 1026 30.3 856 25.28 -1.2 29.9 52 -9.9 14.3
05:10 1026 30.3 856 25.28 -1.1 30.1 54 -9.2 15.5
05:15 1026 30.3 856 25.28 -0.3 31.4 52 -9 15.8
05:20 1026 30.3 856 25.28 -0.1 31.8 53 -8.5 16.7
05:25 1026 30.3 856 25.28 -0.3 31.5 53 -8.7 16.4
05:30 1026 30.3 856 25.28 -0.2 31.7 55 -8.2 17.2
05:35 1026 30.3 855 25.25 -0.5 31.1 56 -8.3 17.1
05:40 1026 30.3 856 25.28 -1.2 29.9 51 -10 14
05:45 1026 30.3 856 25.28 -0.9 30.3 49 -10.5 13.2
05:50 1026 30.3 856 25.28 -0.5 31.2 45 -11 12.2
05:55 1026 30.3 856 25.28 -0.6 30.8 46 -11 12.2
06:00 1026 30.3 856 25.28 -0.6 31 47 -10.5 13
06:05 1026 30.3 856 25.28 -0.2 31.6 45 -10.8 12.6
06:10 1026 30.3 856 25.28 -0.2 31.7 50 -9.5 14.9
06:15 1026 30.3 856 25.28 -0.2 31.6 49 -9.6 14.6
06:20 1026 30.3 856 25.28 -0.6 30.9 51 -9.7 14.6
06:25 1026 30.3 856 25.28 -1.1 30 53 -9.6 14.7
06:30 1026 30.3 856 25.28 -1.3 29.7 49 -10.8 12.6
06:35 1026 30.3 856 25.28 -1.6 29.1 49 -11 12.2
06:40 1026 30.3 856 25.28 -1.8 28.7 50 -11 12.2
06:45 1026 30.3 856 25.28 -2 28.3 51 -10.9 12.3
06:50 1026 30.3 855 25.25 -1.6 29.2 43 -12.6 9.3
06:55 1026 30.3 855 25.25 -0.6 30.9 42 -11.9 10.5
07:00 1026 30.3 855 25.25 -0.3 31.5 44 -11.1 12.1
07:05 1026 30.3 855 25.25 -0.7 30.7 46 -10.8 12.5
07:10 1026 30.3 855 25.25 -1.5 29.3 48 -11.2 11.8
07:15 1026 30.3 855 25.25 -0.6 30.9 44 -11.4 11.5
07:20 1026 30.3 855 25.25 0.7 33.2 44 -10.3 13.4
07:25 1026 30.3 855 25.25 0.5 32.8 49 -9.2 15.5
07:30 1026 30.3 855 25.25 -0 32 48 -9.8 14.3
07:35 1026 30.3 855 25.25 0.2 32.3 45 -10.4 13.3
07:40 1026 30.3 855 25.25 -0 32 51 -9.1 15.7
07:45 1026 30.3 855 25.25 -0.1 31.7 53 -8.6 16.5
07:50 1026 30.3 855 25.25 -0.4 31.3 52 -9 15.8
07:55 1025 30.27 855 25.25 -0.3 31.4 52 -8.9 15.9
08:00 1025 30.27 855 25.25 -0.6 31 49 -10 14
08:05 1025 30.27 855 25.25 -0.2 31.6 47 -10.1 13.8
08:10 1025 30.27 855 25.25 0.4 32.6 49 -9.2 15.4
08:15 1025 30.27 855 25.25 0.8 33.4 47 -9.3 15.2
08:20 1025 30.27 855 25.25 0.7 33.3 48 -9.1 15.6
08:25 1025 30.27 855 25.25 0.3 32.5 49 -9.1 15.6
08:30 1025 30.27 855 25.25 -0.3 31.4 51 -9.3 15.2
08:35 1025 30.27 855 25.25 -0.5 31.2 49 -9.9 14.2
08:40 1025 30.27 854 25.22 -0.2 31.6 48 -9.8 14.3
08:45 1025 30.27 855 25.25 -0.2 31.7 51 -9.2 15.5
08:50 1026 30.3 855 25.25 -0.2 31.7 53 -8.7 16.4
08:55 1026 30.3 855 25.25 -0.3 31.5 52 -9 15.8
09:00 1025 30.27 855 25.25 0.2 32.4 48 -9.6 14.8
09:05 1025 30.27 855 25.25 0.9 33.7 48 -8.8 16.2
09:10 1025 30.27 855 25.25 1.2 34.2 48 -8.5 16.7
09:15 1025 30.27 855 25.25 1.4 34.4 48 -8.6 16.5
09:20 1025 30.27 854 25.22 1.2 34.2 46 -9.2 15.4
09:25 1025 30.27 854 25.22 1.1 33.9 48 -8.8 16.2
09:30 1025 30.27 854 25.22 1.1 34 49 -8.3 17
09:35 1025 30.27 854 25.22 1 33.8 49 -8.5 16.7
09:40 1025 30.27 854 25.22 1.2 34.1 50 -8.3 17.1
09:45 1025 30.27 854 25.22 1.5 34.7 48 -8.3 17
09:50 1025 30.27 854 25.22 2.6 36.7 44 -8.5 16.7
09:55 1025 30.27 854 25.22 3.4 38.1 43 -8.2 17.3
10:00 1025 30.27 854 25.22 3.5 38.4 42 -8.2 17.2
10:05 1025 30.27 854 25.22 4 39.2 40 -8.5 16.8
10:10 1025 30.27 854 25.22 4.1 39.3 38 -9 15.8
10:15 1025 30.27 854 25.22 4.3 39.8 38 -8.9 15.9
10:20 1025 30.27 854 25.22 4.3 39.8 40 -8.1 17.4
10:25 1025 30.27 854 25.22 4.7 40.4 40 -7.8 18
10:30 1025 30.27 854 25.22 3.5 38.3 42 -8.1 17.4
10:35 1025 30.27 854 25.22 3.4 38.1 44 -7.8 18
10:40 1025 30.27 854 25.22 3.3 38 44 -7.8 18
10:45 1025 30.27 854 25.22 3.9 39 42 -7.9 17.8
10:50 1025 30.27 854 25.22 4.3 39.8 40 -8.2 17.3
10:55 1025 30.27 854 25.22 4.3 39.8 40 -8 17.6
11:00 1025 30.27 854 25.22 4.1 39.3 41 -8 17.5
11:05 1024 30.24 854 25.22 4.8 40.6 38 -8.3 17
11:10 1024 30.24 854 25.22 5.2 41.3 38 -7.9 17.7
11:15 1024 30.24 854 25.22 5.1 41.1 38 -8.2 17.2
11:20 1024 30.24 853 25.19 5.1 41.3 37 -8.5 16.8
11:25 1024 30.24 853 25.19 5.4 41.8 39 -7.6 18.3
11:30 1024 30.24 853 25.19 5.4 41.6 39 -7.5 18.6
11:35 1024 30.24 853 25.19 4.8 40.6 41 -7.5 18.6
11:40 1024 30.24 853 25.19 4.5 40 41 -7.6 18.3
11:45 1023 30.21 853 25.19 4.3 39.8 40 -8 17.6
11:50 1023 30.21 852 25.16 4.9 40.7 39 -7.8 17.9
11:55 1023 30.21 852 25.16 4.9 40.8 40 -7.7 18.1
12:00 1023 30.21 852 25.16 4.6 40.3 40 -7.7 18.1
12:05 1023 30.21 852 25.16 5.3 41.5 38 -8.1 17.5
12:10 1023 30.21 852 25.16 5 41.1 39 -7.8 17.9
12:15 1023 30.21 852 25.16 5.8 42.4 35 -8.4 16.9
12:20 1023 30.21 852 25.16 6.1 42.9 35 -8.3 17.1
12:25 1022 30.18 852 25.16 5.7 42.2 35 -8.5 16.8
12:30 1022 30.18 852 25.16 5.7 42.3 35 -8.8 16.2
12:35 1022 30.18 852 25.16 6 42.7 35 -8.5 16.8
12:40 1022 30.18 851 25.13 6.6 43.9 34 -8.4 17
12:45 1022 30.18 851 25.13 7.1 44.7 33 -8.2 17.2
12:50 1022 30.18 851 25.13 7.2 45 33 -7.9 17.8
12:55 1022 30.18 851 25.13 7.3 45.1 33 -8 17.6
13:00 1022 30.18 851 25.13 7 44.6 33 -8.3 17.1
13:05 1022 30.18 851 25.13 7.1 44.8 33 -8.3 17.1
13:10 1022 30.18 851 25.13 7.1 44.7 32 -8.4 16.9
13:15 1022 30.18 851 25.13 7 44.7 33 -8.2 17.3
13:20 1022 30.18 851 25.13 7.2 45 33 -7.9 17.8
13:25 1022 30.18 851 25.13 7.4 45.3 33 -7.9 17.8
13:30 1022 30.18 851 25.13 7.1 44.8 34 -7.6 18.3
13:35 1022 30.18 851 25.13 6.8 44.2 35 -7.6 18.4
13:40 1022 30.18 851 25.13 6.7 44 35 -7.8 18
13:45 1022 30.18 851 25.13 6.9 44.4 34 -7.7 18.1
13:50 1021 30.15 851 25.13 6.4 43.6 35 -7.8 18
13:55 1021 30.15 850 25.1 5.9 42.7 37 -7.5 18.5
14:00 1021 30.15 850 25.1 5.9 42.6 37 -7.7 18.2
14:05 1021 30.15 850 25.1 6 42.7 37 -7.8 18
14:10 1021 30.15 850 25.1 6.2 43.1 36 -7.8 17.9
14:15 1021 30.15 850 25.1 6.7 44.1 35 -7.6 18.3
14:20 1021 30.15 850 25.1 6.9 44.4 35 -7.6 18.3
14:25 1021 30.15 850 25.1 6.9 44.4 35 -7.4 18.6
14:30 1021 30.15 850 25.1 7 44.5 35 -7.6 18.3
14:35 1021 30.15 850 25.1 7 44.6 34 -7.7 18.2
14:40 1021 30.15 850 25.1 7 44.5 35 -7.4 18.6
14:45 1021 30.15 850 25.1 6.9 44.5 36 -7.1 19.3
14:50 1021 30.15 850 25.1 6.5 43.6 39 -6.5 20.3
14:55 1021 30.15 850 25.1 5.9 42.7 39 -6.9 19.5
15:00 1021 30.15 850 25.1 5.9 42.6 39 -6.9 19.6
15:05 1021 30.15 850 25.1 5.9 42.6 39 -7 19.5
15:10 1021 30.15 850 25.1 5.8 42.5 40 -6.9 19.6
15:15 1021 30.15 850 25.1 5.7 42.3 40 -6.8 19.7
15:20 1021 30.15 850 25.1 5.6 42.2 40 -6.9 19.6
15:25 1021 30.15 850 25.1 5.6 42.1 40 -6.8 19.8
15:30 1021 30.15 850 25.1 5.6 42.1 41 -6.7 19.9
15:35 1021 30.15 850 25.1 5.5 41.9 42 -6.6 20.2
15:40 1021 30.15 850 25.1 5.5 41.9 42 -6.5 20.4
15:45 1021 30.15 850 25.1 5.3 41.5 42 -6.5 20.4
15:50 1020 30.12 850 25.1 5.2 41.3 42 -6.6 20.1
15:55 1020 30.12 849 25.07 5.1 41.1 42 -6.7 20
16:00 1020 30.12 849 25.07 5 41.1 42 -6.8 19.8
16:05 1020 30.12 849 25.07 5 41.1 42 -6.7 19.9
16:10 1020 30.12 849 25.07 5.1 41.1 43 -6.5 20.2
16:15 1020 30.12 849 25.07 5.1 41.2 43 -6.4 20.5
16:20 1020 30.12 849 25.07 5.1 41.3 43 -6.4 20.5
16:25 1020 30.12 849 25.07 5.2 41.4 44 -6.2 20.8
16:30 1020 30.12 849 25.07 5.4 41.7 43 -6.3 20.7
16:35 1020 30.12 849 25.07 5.4 41.8 44 -5.9 21.3
16:40 1020 30.12 849 25.07 5.2 41.4 45 -5.8 21.5
16:45 1020 30.12 849 25.07 5.1 41.2 45 -5.8 21.6
16:50 1020 30.12 849 25.07 5.4 41.6 45 -5.7 21.7
16:55 1019 30.09 849 25.07 5.4 41.6 48 -4.9 23.3
17:00 1019 30.09 848 25.04 5.2 41.4 46 -5.5 22
17:05 1019 30.09 848 25.04 5.3 41.6 47 -5.2 22.6
17:10 1019 30.09 848 25.04 5 41.1 49 -4.7 23.5
17:15 1019 30.09 848 25.04 4.7 40.4 50 -4.7 23.5
17:20 1019 30.09 848 25.04 4.5 40 51 -4.7 23.6
17:25 1019 30.09 848 25.04 4.5 40 52 -4.7 23.6
17:30 1019 30.09 849 25.07 4.5 40.1 51 -4.7 23.5
17:35 1020 30.12 849 25.07 5 41.1 47 -5.2 22.6
17:40 1020 30.12 849 25.07 5.1 41.2 47 -5.3 22.5
17:45 1020 30.12 849 25.07 4.7 40.5 48 -5.2 22.6
17:50 1020 30.12 849 25.07 4.4 39.9 50 -5.2 22.6
17:55 1020 30.12 849 25.07 4.1 39.4 50 -5.4 22.3
18:00 1020 30.12 849 25.07 3.9 39 50 -5.5 22
18:05 1020 30.12 849 25.07 3.8 38.9 50 -5.6 21.9
18:10 1020 30.12 849 25.07 3.4 38.2 52 -5.5 22.1
18:15 1020 30.12 849 25.07 3.3 37.9 51 -5.8 21.5
18:20 1020 30.12 849 25.07 3.2 37.8 54 -5.2 22.7
18:25 1020 30.12 849 25.07 3.2 37.7 55 -5 23
18:30 1020 30.12 849 25.07 3.2 37.7 58 -4.4 24.1
18:35 1020 30.12 849 25.07 2.9 37.2 59 -4.3 24.3
18:40 1020 30.12 849 25.07 3 37.3 58 -4.4 24.1
18:45 1020 30.12 849 25.07 3 37.4 59 -4.3 24.3
18:50 1019 30.09 849 25.07 3.1 37.6 57 -4.6 23.7
18:55 1019 30.09 849 25.07 3.3 38 55 -4.8 23.3
19:00 1019 30.09 848 25.04 3.3 37.9 54 -5.1 22.8
19:05 1019 30.09 848 25.04 3.4 38.1 53 -5.2 22.6
19:10 1019 30.09 848 25.04 3.4 38.2 52 -5.5 22.1
19:15 1019 30.09 848 25.04 3.8 38.9 49 -6 21.1
19:20 1019 30.09 848 25.04 4.3 39.8 47 -6 21.2
19:25 1019 30.09 848 25.04 4.3 39.7 49 -5.4 22.2
19:30 1019 30.09 848 25.04 4.2 39.5 49 -5.5 22
19:35 1019 30.09 848 25.04 3.8 38.9 51 -5.4 22.3
19:40 1019 30.09 848 25.04 3.8 38.9 50 -5.7 21.8
19:45 1019 30.09 848 25.04 4.3 39.7 47 -6.1 21.1
19:50 1019 30.09 848 25.04 5.1 41.1 46 -5.5 22.1
19:55 1019 30.09 848 25.04 5.1 41.2 45 -5.9 21.4
20:00 1019 30.09 848 25.04 5.5 41.9 46 -5.2 22.7
20:05 1019 30.09 848 25.04 5.1 41.2 48 -5.1 22.8
20:10 1019 30.09 848 25.04 5.3 41.6 45 -5.8 21.6
20:15 1019 30.09 848 25.04 5.4 41.7 45 -5.6 21.9
20:20 1019 30.09 848 25.04 5.4 41.7 47 -5 23.1
20:25 1019 30.09 848 25.04 5.2 41.4 46 -5.5 22.1
20:30 1019 30.09 848 25.04 5.5 41.9 46 -5.3 22.4
20:35 1019 30.09 848 25.04 5.5 41.9 46 -5.3 22.4
20:40 1018 30.06 848 25.04 5.5 41.9 46 -5.3 22.5
20:45 1018 30.06 848 25.04 5.9 42.7 43 -5.8 21.5
20:50 1018 30.06 848 25.04 6.6 43.8 40 -6 21.2
20:55 1018 30.06 848 25.04 6.9 44.5 40 -5.7 21.7
21:00 1019 30.09 848 25.04 6.9 44.5 40 -5.8 21.6
21:05 1019 30.09 848 25.04 6.9 44.5 41 -5.6 22
21:10 1018 30.06 848 25.04 6.8 44.2 41 -5.4 22.3
21:15 1018 30.06 847 25.01 6.2 43.2 44 -5.1 22.9
21:20 1018 30.06 847 25.01 6.5 43.6 42 -5.4 22.2
21:25 1018 30.06 848 25.04 6.6 43.8 42 -5.4 22.3
21:30 1018 30.06 848 25.04 7 44.7 41 -5.5 22.1
21:35 1018 30.06 848 25.04 6.9 44.5 41 -5.4 22.2
21:40 1018 30.06 848 25.04 6.7 44.1 41 -5.7 21.8
21:45 1018 30.06 848 25.04 6.9 44.3 41 -5.6 21.9
21:50 1018 30.06 848 25.04 7 44.6 40 -5.7 21.8
21:55 1018 30.06 848 25.04 6.9 44.4 43 -4.9 23.1
22:00 1018 30.06 848 25.04 6.1 43 45 -5 23.1
22:05 1018 30.06 847 25.01 5.6 42.1 44 -5.7 21.8
22:10 1018 30.06 848 25.04 5.7 42.3 42 -6.1 20.9
22:15 1018 30.06 848 25.04 6.1 43.1 41 -6.2 20.9
22:20 1018 30.06 848 25.04 6.7 44 42 -5.3 22.5
22:25 1018 30.06 847 25.01 6.2 43.1 42 -5.8 21.6
22:30 1018 30.06 847 25.01 6.4 43.5 44 -4.9 23.2
22:35 1018 30.06 847 25.01 5.6 42.1 46 -5.1 22.9
22:40 1018 30.06 847 25.01 5.5 41.9 45 -5.5 22.2
22:45 1018 30.06 847 25.01 5.6 42 44 -5.6 21.8
22:50 1018 30.06 847 25.01 6 42.8 43 -5.6 22
22:55 1018 30.06 847 25.01 5.9 42.6 45 -5.3 22.5
23:00 1018 30.06 847 25.01 5.8 42.4 45 -5.4 22.4
23:05 1018 30.06 847 25.01 5.8 42.4 45 -5.3 22.4
23:10 1018 30.06 847 25.01 6.1 42.9 42 -5.9 21.3
23:15 1018 30.06 847 25.01 6.5 43.8 42 -5.5 22.1
23:20 1018 30.06 847 25.01 6.9 44.4 42 -5.2 22.7
23:25 1018 30.06 847 25.01 6.4 43.6 42 -5.6 21.8
23:30 1018 30.06 847 25.01 6 42.9 44 -5.2 22.6
23:35 1018 30.06 847 25.01 5.6 42.1 44 -5.8 21.5
23:40 1018 30.06 847 25.01 5.9 42.6 44 -5.5 22.1
23:45 1018 30.06 847 25.01 5.9 42.5 43 -5.7 21.7
23:50 1018 30.06 847 25.01 6.1 43 42 -5.7 21.7
23:55 1018 30.06 847 25.01 6.3 43.3 42 -5.8 21.6
24:00 1018 30.06 847 25.01 6.6 43.9 40 -6 21.1